sensor_id;sensor_type;location;lat;lon;timestamp;pressure;altitude;pressure_sealevel;temperature;humidity
19096;BME280;9680;52.520;13.332;2022-10-30T00:00:32;101635.28;;;16.11;91.85
19096;BME280;9680;52.520;13.332;2022-10-30T00:03:01;101632.72;;;16.10;91.99
19096;BME280;9680;52.520;13.332;2022-10-30T00:05:27;101632.84;;;16.07;91.86
19096;BME280;9680;52.520;13.332;2022-10-30T00:07:56;101636.41;;;16.06;91.89
19096;BME280;9680;52.520;13.332;2022-10-30T00:10:22;101632.06;;;16.05;92.04
19096;BME280;9680;52.520;13.332;2022-10-30T00:12:48;101633.00;;;16.04;91.87
19096;BME280;9680;52.520;13.332;2022-10-30T00:15:14;101627.13;;;15.98;92.11
19096;BME280;9680;52.520;13.332;2022-10-30T00:17:39;101625.50;;;15.96;92.35
19096;BME280;9680;52.520;13.332;2022-10-30T00:20:06;101627.41;;;15.92;92.21
19096;BME280;9680;52.520;13.332;2022-10-30T00:22:32;101621.47;;;15.87;92.55
19096;BME280;9680;52.520;13.332;2022-10-30T00:24:58;101617.19;;;15.84;92.45
19096;BME280;9680;52.520;13.332;2022-10-30T00:27:24;101613.78;;;15.82;92.57
19096;BME280;9680;52.520;13.332;2022-10-30T00:29:49;101614.88;;;15.78;92.46
19096;BME280;9680;52.520;13.332;2022-10-30T00:32:16;101612.38;;;15.75;92.80
19096;BME280;9680;52.520;13.332;2022-10-30T00:34:41;101617.72;;;15.73;92.97
19096;BME280;9680;52.520;13.332;2022-10-30T00:37:07;101615.28;;;15.69;93.17
19096;BME280;9680;52.520;13.332;2022-10-30T00:39:33;101620.78;;;15.64;93.00
19096;BME280;9680;52.520;13.332;2022-10-30T00:41:59;101616.56;;;15.60;93.19
19096;BME280;9680;52.520;13.332;2022-10-30T00:44:50;101618.63;;;15.53;93.52
19096;BME280;9680;52.520;13.332;2022-10-30T00:47:33;101624.00;;;15.50;93.69
19096;BME280;9680;52.520;13.332;2022-10-30T00:50:23;101621.53;;;15.47;94.02
19096;BME280;9680;52.520;13.332;2022-10-30T00:53:06;101614.69;;;15.43;94.24
19096;BME280;9680;52.520;13.332;2022-10-30T00:55:37;101615.63;;;15.42;93.92
19096;BME280;9680;52.520;13.332;2022-10-30T00:58:07;101606.97;;;15.40;94.35
19096;BME280;9680;52.520;13.332;2022-10-30T01:00:35;101603.56;;;15.38;94.56
19096;BME280;9680;52.520;13.332;2022-10-30T01:03:04;101594.81;;;15.37;94.46
19096;BME280;9680;52.520;13.332;2022-10-30T01:05:31;101594.81;;;15.37;94.75
19096;BME280;9680;52.520;13.332;2022-10-30T01:07:57;101596.50;;;15.38;94.60
19096;BME280;9680;52.520;13.332;2022-10-30T01:10:24;101593.97;;;15.37;94.55
19096;BME280;9680;52.520;13.332;2022-10-30T01:12:51;101586.94;;;15.37;94.85
19096;BME280;9680;52.520;13.332;2022-10-30T01:15:23;101579.19;;;15.34;94.97
19096;BME280;9680;52.520;13.332;2022-10-30T01:26:22;101588.72;;;15.16;95.20
19096;BME280;9680;52.520;13.332;2022-10-30T01:29:16;101583.72;;;15.11;95.24
19096;BME280;9680;52.520;13.332;2022-10-30T01:34:57;101585.72;;;15.05;95.66
19096;BME280;9680;52.520;13.332;2022-10-30T01:37:35;101589.50;;;14.99;95.96
19096;BME280;9680;52.520;13.332;2022-10-30T01:40:12;101581.75;;;14.96;95.88
19096;BME280;9680;52.520;13.332;2022-10-30T01:42:58;101584.50;;;14.93;96.12
19096;BME280;9680;52.520;13.332;2022-10-30T01:48:26;101574.13;;;14.90;96.49
19096;BME280;9680;52.520;13.332;2022-10-30T01:51:27;101572.50;;;14.87;96.38
19096;BME280;9680;52.520;13.332;2022-10-30T01:57:39;101555.25;;;14.81;96.67
19096;BME280;9680;52.520;13.332;2022-10-30T02:00:13;101552.69;;;14.80;96.55
19096;BME280;9680;52.520;13.332;2022-10-30T02:02:40;101555.38;;;14.78;96.85
19096;BME280;9680;52.520;13.332;2022-10-30T02:05:09;101559.00;;;14.76;96.79
19096;BME280;9680;52.520;13.332;2022-10-30T02:07:36;101557.34;;;14.73;97.32
19096;BME280;9680;52.520;13.332;2022-10-30T02:10:04;101553.88;;;14.73;97.10
19096;BME280;9680;52.520;13.332;2022-10-30T02:12:30;101557.41;;;14.72;97.43
19096;BME280;9680;52.520;13.332;2022-10-30T02:14:59;101556.56;;;14.71;97.43
19096;BME280;9680;52.520;13.332;2022-10-30T02:17:26;101549.66;;;14.68;97.60
19096;BME280;9680;52.520;13.332;2022-10-30T02:19:52;101549.78;;;14.65;97.40
19096;BME280;9680;52.520;13.332;2022-10-30T02:22:18;101555.09;;;14.64;97.29
19096;BME280;9680;52.520;13.332;2022-10-30T02:24:44;101552.59;;;14.61;97.39
19096;BME280;9680;52.520;13.332;2022-10-30T02:27:10;101555.28;;;14.59;97.58
19096;BME280;9680;52.520;13.332;2022-10-30T02:29:38;101551.81;;;14.59;97.71
19096;BME280;9680;52.520;13.332;2022-10-30T02:32:04;101543.94;;;14.59;97.96
19096;BME280;9680;52.520;13.332;2022-10-30T02:34:31;101544.84;;;14.57;98.04
19096;BME280;9680;52.520;13.332;2022-10-30T02:36:57;101539.56;;;14.59;97.91
19096;BME280;9680;52.520;13.332;2022-10-30T02:39:23;101539.56;;;14.59;97.74
19096;BME280;9680;52.520;13.332;2022-10-30T02:41:48;101537.84;;;14.58;98.02
19096;BME280;9680;52.520;13.332;2022-10-30T02:44:14;101537.91;;;14.56;97.92
19096;BME280;9680;52.520;13.332;2022-10-30T02:46:39;101537.13;;;14.54;97.61
19096;BME280;9680;52.520;13.332;2022-10-30T02:49:06;101538.94;;;14.52;97.79
19096;BME280;9680;52.520;13.332;2022-10-30T02:51:31;101532.00;;;14.51;97.56
19096;BME280;9680;52.520;13.332;2022-10-30T02:53:58;101531.22;;;14.49;97.83
19096;BME280;9680;52.520;13.332;2022-10-30T02:56:23;101533.06;;;14.47;97.84
19096;BME280;9680;52.520;13.332;2022-10-30T02:58:49;101527.84;;;14.46;97.93
19096;BME280;9680;52.520;13.332;2022-10-30T03:01:18;101532.25;;;14.45;97.71
19096;BME280;9680;52.520;13.332;2022-10-30T03:03:44;101535.72;;;14.46;98.04
19096;BME280;9680;52.520;13.332;2022-10-30T03:06:12;101538.44;;;14.44;97.93
19096;BME280;9680;52.520;13.332;2022-10-30T03:08:40;101548.91;;;14.44;97.78
19096;BME280;9680;52.520;13.332;2022-10-30T03:11:11;101548.91;;;14.44;98.41
19096;BME280;9680;52.520;13.332;2022-10-30T03:13:39;101557.56;;;14.46;98.08
19096;BME280;9680;52.520;13.332;2022-10-30T03:16:13;101552.31;;;14.46;97.78
19096;BME280;9680;52.520;13.332;2022-10-30T03:18:39;101558.47;;;14.45;98.18
19096;BME280;9680;52.520;13.332;2022-10-30T03:21:10;101552.38;;;14.45;98.01
19096;BME280;9680;52.520;13.332;2022-10-30T03:23:36;101547.13;;;14.45;97.96
19096;BME280;9680;52.520;13.332;2022-10-30T03:26:02;101547.06;;;14.46;98.14
19096;BME280;9680;52.520;13.332;2022-10-30T03:28:31;101543.53;;;14.47;98.32
19096;BME280;9680;52.520;13.332;2022-10-30T03:31:01;101541.63;;;14.51;98.25
19096;BME280;9680;52.520;13.332;2022-10-30T03:33:27;101539.78;;;14.53;97.86
19096;BME280;9680;52.520;13.332;2022-10-30T03:35:53;101536.19;;;14.55;97.63
19096;BME280;9680;52.520;13.332;2022-10-30T03:38:19;101534.38;;;14.57;97.94
19096;BME280;9680;52.520;13.332;2022-10-30T03:40:45;101527.38;;;14.58;97.38
19096;BME280;9680;52.520;13.332;2022-10-30T03:43:10;101517.66;;;14.60;97.47
19096;BME280;9680;52.520;13.332;2022-10-30T03:45:37;101518.44;;;14.62;97.65
19096;BME280;9680;52.520;13.332;2022-10-30T03:48:05;101502.50;;;14.67;97.74
19096;BME280;9680;52.520;13.332;2022-10-30T03:50:31;101500.50;;;14.74;97.72
19096;BME280;9680;52.520;13.332;2022-10-30T03:52:57;101495.06;;;14.78;97.42
19096;BME280;9680;52.520;13.332;2022-10-30T03:55:24;101496.56;;;14.84;97.33
19096;BME280;9680;52.520;13.332;2022-10-30T03:57:50;101505.09;;;14.89;96.65
19096;BME280;9680;52.520;13.332;2022-10-30T04:00:18;101512.75;;;14.94;96.38
19096;BME280;9680;52.520;13.332;2022-10-30T04:02:54;101510.84;;;14.97;96.00
19096;BME280;9680;52.520;13.332;2022-10-30T04:05:22;101500.28;;;14.99;95.78
19096;BME280;9680;52.520;13.332;2022-10-30T04:07:55;101507.94;;;15.04;95.59
19096;BME280;9680;52.520;13.332;2022-10-30T04:10:21;101521.78;;;15.07;95.31
19096;BME280;9680;52.520;13.332;2022-10-30T04:12:47;101522.56;;;15.09;95.12
19096;BME280;9680;52.520;13.332;2022-10-30T04:15:13;101520.72;;;15.11;94.96
19096;BME280;9680;52.520;13.332;2022-10-30T04:17:38;101530.22;;;15.14;94.66
19096;BME280;9680;52.520;13.332;2022-10-30T04:20:04;101530.31;;;15.12;94.32
19096;BME280;9680;52.520;13.332;2022-10-30T04:22:30;101538.31;;;15.09;93.68
19096;BME280;9680;52.520;13.332;2022-10-30T04:24:56;101525.47;;;15.03;93.40
19096;BME280;9680;52.520;13.332;2022-10-30T04:27:22;101525.66;;;14.98;93.78
19096;BME280;9680;52.520;13.332;2022-10-30T04:29:48;101521.41;;;14.96;93.60
19096;BME280;9680;52.520;13.332;2022-10-30T04:32:13;101536.38;;;14.94;93.95
19096;BME280;9680;52.520;13.332;2022-10-30T04:34:40;101548.81;;;14.89;94.04
19096;BME280;9680;52.520;13.332;2022-10-30T04:37:06;101546.19;;;14.89;94.35
19096;BME280;9680;52.520;13.332;2022-10-30T04:39:32;101538.31;;;14.89;94.45
19096;BME280;9680;52.520;13.332;2022-10-30T04:42:06;101546.09;;;14.92;94.37
19096;BME280;9680;52.520;13.332;2022-10-30T04:44:33;101561.09;;;14.88;93.83
19096;BME280;9680;52.520;13.332;2022-10-30T04:46:58;101547.88;;;14.90;93.94
19096;BME280;9680;52.520;13.332;2022-10-30T04:49:24;101537.16;;;14.96;94.12
19096;BME280;9680;52.520;13.332;2022-10-30T04:51:49;101528.28;;;14.98;94.08
19096;BME280;9680;52.520;13.332;2022-10-30T04:54:16;101538.72;;;15.00;93.75
19096;BME280;9680;52.520;13.332;2022-10-30T04:56:41;101536.16;;;14.98;93.72
19096;BME280;9680;52.520;13.332;2022-10-30T04:59:07;101527.22;;;15.03;93.92
19096;BME280;9680;52.520;13.332;2022-10-30T05:01:32;101520.13;;;15.05;93.80
19096;BME280;9680;52.520;13.332;2022-10-30T05:04:00;101534.00;;;15.08;93.49
19096;BME280;9680;52.520;13.332;2022-10-30T05:06:29;101528.75;;;15.08;93.32
19096;BME280;9680;52.520;13.332;2022-10-30T05:08:56;101526.03;;;15.10;93.22
19096;BME280;9680;52.520;13.332;2022-10-30T05:11:32;101532.97;;;15.11;92.97
19096;BME280;9680;52.520;13.332;2022-10-30T05:13:58;101541.00;;;15.08;93.00
19096;BME280;9680;52.520;13.332;2022-10-30T05:16:24;101536.75;;;15.05;93.12
19096;BME280;9680;52.520;13.332;2022-10-30T05:18:50;101525.47;;;15.03;92.78
19096;BME280;9680;52.520;13.332;2022-10-30T05:21:16;101517.50;;;15.05;92.97
19096;BME280;9680;52.520;13.332;2022-10-30T05:23:41;101512.22;;;15.06;92.94
19096;BME280;9680;52.520;13.332;2022-10-30T05:26:07;101510.38;;;15.08;92.64
19096;BME280;9680;52.520;13.332;2022-10-30T05:28:33;101492.84;;;15.09;92.65
19096;BME280;9680;52.520;13.332;2022-10-30T05:30:58;101490.16;;;15.10;92.36
19096;BME280;9680;52.520;13.332;2022-10-30T05:33:42;101485.69;;;15.12;92.27
19096;BME280;9680;52.520;13.332;2022-10-30T05:36:08;101484.91;;;15.10;92.09
19096;BME280;9680;52.520;13.332;2022-10-30T05:38:34;101484.91;;;15.10;92.14
19096;BME280;9680;52.520;13.332;2022-10-30T05:40:59;101492.66;;;15.13;91.87
19096;BME280;9680;52.520;13.332;2022-10-30T05:43:25;101504.97;;;15.11;91.53
19096;BME280;9680;52.520;13.332;2022-10-30T05:45:50;101520.72;;;15.11;91.34
19096;BME280;9680;52.520;13.332;2022-10-30T05:48:16;101521.66;;;15.10;91.04
19096;BME280;9680;52.520;13.332;2022-10-30T05:50:44;101494.50;;;15.11;90.93
19096;BME280;9680;52.520;13.332;2022-10-30T05:53:25;101448.03;;;15.13;90.60
19096;BME280;9680;52.520;13.332;2022-10-30T05:55:56;101491.00;;;15.11;90.58
19096;BME280;9680;52.520;13.332;2022-10-30T05:58:23;101510.38;;;15.08;90.33
19096;BME280;9680;52.520;13.332;2022-10-30T06:00:49;101480.59;;;15.09;90.49
19096;BME280;9680;52.520;13.332;2022-10-30T06:03:24;101475.13;;;15.14;90.18
19096;BME280;9680;52.520;13.332;2022-10-30T06:05:50;101500.28;;;15.18;89.82
19096;BME280;9680;52.520;13.332;2022-10-30T06:08:16;101488.81;;;15.21;89.65
19096;BME280;9680;52.520;13.332;2022-10-30T06:10:42;101482.44;;;15.26;89.47
19096;BME280;9680;52.520;13.332;2022-10-30T06:13:31;101484.00;;;15.31;89.19
19096;BME280;9680;52.520;13.332;2022-10-30T06:16:03;101487.41;;;15.33;88.86
19096;BME280;9680;52.520;13.332;2022-10-30T06:18:49;101483.72;;;15.37;88.92
19096;BME280;9680;52.520;13.332;2022-10-30T06:21:17;101484.56;;;15.37;88.62
19096;BME280;9680;52.520;13.332;2022-10-30T06:23:53;101483.50;;;15.41;88.27
19096;BME280;9680;52.520;13.332;2022-10-30T06:26:34;101465.84;;;15.45;87.83
19096;BME280;9680;52.520;13.332;2022-10-30T06:29:05;101466.53;;;15.49;87.50
19096;BME280;9680;52.520;13.332;2022-10-30T06:31:31;101458.66;;;15.49;87.55
19096;BME280;9680;52.520;13.332;2022-10-30T06:33:58;101456.81;;;15.51;87.44
19096;BME280;9680;52.520;13.332;2022-10-30T06:36:24;101461.13;;;15.52;87.34
19096;BME280;9680;52.520;13.332;2022-10-30T06:38:51;101468.84;;;15.55;87.29
19096;BME280;9680;52.520;13.332;2022-10-30T06:41:20;101476.63;;;15.58;87.47
19096;BME280;9680;52.520;13.332;2022-10-30T06:44:00;101485.28;;;15.60;87.01
19096;BME280;9680;52.520;13.332;2022-10-30T06:46:28;101472.00;;;15.63;86.81
19096;BME280;9680;52.520;13.332;2022-10-30T06:48:54;101474.53;;;15.65;86.31
19096;BME280;9680;52.520;13.332;2022-10-30T06:51:20;101472.00;;;15.63;86.52
19096;BME280;9680;52.520;13.332;2022-10-30T06:53:46;101478.09;;;15.64;86.40
19096;BME280;9680;52.520;13.332;2022-10-30T06:56:30;101486.88;;;15.63;86.44
19096;BME280;9680;52.520;13.332;2022-10-30T06:59:14;101490.59;;;15.58;86.17
19096;BME280;9680;52.520;13.332;2022-10-30T07:01:43;101495.13;;;15.55;86.12
19096;BME280;9680;52.520;13.332;2022-10-30T07:04:35;101501.28;;;15.54;86.11
19096;BME280;9680;52.520;13.332;2022-10-30T07:07:02;101502.31;;;15.51;86.21
19096;BME280;9680;52.520;13.332;2022-10-30T07:09:28;101505.75;;;15.52;86.12
19096;BME280;9680;52.520;13.332;2022-10-30T07:11:54;101510.19;;;15.51;86.20
19096;BME280;9680;52.520;13.332;2022-10-30T07:14:27;101509.31;;;15.51;85.90
19096;BME280;9680;52.520;13.332;2022-10-30T07:17:10;101516.22;;;15.53;86.01
19096;BME280;9680;52.520;13.332;2022-10-30T07:19:38;101525.69;;;15.56;85.90
19096;BME280;9680;52.520;13.332;2022-10-30T07:22:04;101520.19;;;15.62;85.45
19096;BME280;9680;52.520;13.332;2022-10-30T07:24:32;101523.31;;;15.70;85.71
19096;BME280;9680;52.520;13.332;2022-10-30T07:27:06;101521.06;;;15.80;85.61
19096;BME280;9680;52.520;13.332;2022-10-30T07:29:39;101522.31;;;15.92;85.21
19096;BME280;9680;52.520;13.332;2022-10-30T07:32:11;101527.06;;;16.03;84.89
19096;BME280;9680;52.520;13.332;2022-10-30T07:35:08;101536.03;;;16.16;84.28
19096;BME280;9680;52.520;13.332;2022-10-30T07:37:51;101526.84;;;16.25;83.61
19096;BME280;9680;52.520;13.332;2022-10-30T07:40:16;101520.66;;;16.26;83.01
19096;BME280;9680;52.520;13.332;2022-10-30T07:42:56;101527.69;;;16.26;83.11
19096;BME280;9680;52.520;13.332;2022-10-30T07:45:38;101526.16;;;16.22;82.78
19096;BME280;9680;52.520;13.332;2022-10-30T07:48:23;101531.47;;;16.20;82.80
19096;BME280;9680;52.520;13.332;2022-10-30T07:51:08;101542.06;;;16.19;82.49
19096;BME280;9680;52.520;13.332;2022-10-30T07:53:34;101534.19;;;16.19;82.47
19096;BME280;9680;52.520;13.332;2022-10-30T07:56:00;101530.63;;;16.20;82.47
19096;BME280;9680;52.520;13.332;2022-10-30T07:58:52;101526.00;;;16.25;82.27
19096;BME280;9680;52.520;13.332;2022-10-30T08:01:34;101528.16;;;16.34;82.17
19096;BME280;9680;52.520;13.332;2022-10-30T08:04:28;101538.22;;;16.43;81.91
19096;BME280;9680;52.520;13.332;2022-10-30T08:07:02;101532.31;;;16.56;81.50
19096;BME280;9680;52.520;13.332;2022-10-30T08:09:28;101532.03;;;16.62;81.01
19096;BME280;9680;52.520;13.332;2022-10-30T08:11:54;101539.00;;;16.63;80.75
19096;BME280;9680;52.520;13.332;2022-10-30T08:14:19;101532.41;;;16.72;80.75
19096;BME280;9680;52.520;13.332;2022-10-30T08:16:45;101534.56;;;16.81;80.14
19096;BME280;9680;52.520;13.332;2022-10-30T08:19:10;101544.75;;;16.87;80.07
19096;BME280;9680;52.520;13.332;2022-10-30T08:21:36;101529.75;;;16.89;79.68
19096;BME280;9680;52.520;13.332;2022-10-30T08:24:09;101538.50;;;16.90;79.12
19096;BME280;9680;52.520;13.332;2022-10-30T08:26:38;101532.09;;;16.96;79.48
19096;BME280;9680;52.520;13.332;2022-10-30T08:29:04;101530.59;;;17.08;79.13
19096;BME280;9680;52.520;13.332;2022-10-30T08:31:29;101531.91;;;17.16;78.80
19096;BME280;9680;52.520;13.332;2022-10-30T08:34:01;101519.34;;;17.22;78.56
19096;BME280;9680;52.520;13.332;2022-10-30T08:36:48;101527.00;;;17.26;77.89
19096;BME280;9680;52.520;13.332;2022-10-30T08:39:15;101541.00;;;17.27;77.68
19096;BME280;9680;52.520;13.332;2022-10-30T08:42:01;101535.16;;;17.38;77.68
19096;BME280;9680;52.520;13.332;2022-10-30T08:44:32;101535.66;;;17.44;77.02
19096;BME280;9680;52.520;13.332;2022-10-30T08:47:16;101536.84;;;17.55;76.76
19096;BME280;9680;52.520;13.332;2022-10-30T08:49:43;101536.03;;;17.70;76.38
19096;BME280;9680;52.520;13.332;2022-10-30T08:52:10;101530.25;;;17.96;76.44
19096;BME280;9680;52.520;13.332;2022-10-30T08:54:37;101523.66;;;18.19;75.80
19096;BME280;9680;52.520;13.332;2022-10-30T08:57:02;101534.00;;;18.38;74.73
19096;BME280;9680;52.520;13.332;2022-10-30T08:59:28;101530.56;;;18.52;74.01
19096;BME280;9680;52.520;13.332;2022-10-30T09:01:57;101531.81;;;18.61;73.03
19096;BME280;9680;52.520;13.332;2022-10-30T09:04:22;101533.97;;;18.69;72.79
19096;BME280;9680;52.520;13.332;2022-10-30T09:06:53;101529.44;;;18.71;72.21
19096;BME280;9680;52.520;13.332;2022-10-30T09:09:22;101532.75;;;18.60;72.09
19096;BME280;9680;52.520;13.332;2022-10-30T09:11:54;101529.09;;;18.46;71.97
19096;BME280;9680;52.520;13.332;2022-10-30T09:14:20;101530.69;;;18.34;72.25
19096;BME280;9680;52.520;13.332;2022-10-30T09:16:45;101536.66;;;18.22;72.39
19096;BME280;9680;52.520;13.332;2022-10-30T09:19:14;101527.75;;;18.09;72.76
19096;BME280;9680;52.520;13.332;2022-10-30T09:21:40;101528.25;;;17.99;73.05
19096;BME280;9680;52.520;13.332;2022-10-30T09:24:06;101531.63;;;18.03;73.34
19096;BME280;9680;52.520;13.332;2022-10-30T09:26:34;101519.78;;;18.10;73.38
19096;BME280;9680;52.520;13.332;2022-10-30T09:29:07;101520.25;;;18.17;72.94
19096;BME280;9680;52.520;13.332;2022-10-30T09:31:53;101510.78;;;18.29;72.61
19096;BME280;9680;52.520;13.332;2022-10-30T09:34:23;101504.22;;;18.36;72.37
19096;BME280;9680;52.520;13.332;2022-10-30T09:37:07;101503.78;;;18.44;72.02
19096;BME280;9680;52.520;13.332;2022-10-30T09:39:35;101506.81;;;18.52;71.57
19096;BME280;9680;52.520;13.332;2022-10-30T09:50:24;101503.47;;;18.94;68.45
19096;BME280;9680;52.520;13.332;2022-10-30T09:53:18;101502.16;;;19.01;68.02
19096;BME280;9680;52.520;13.332;2022-10-30T09:56:08;101503.28;;;19.11;67.55
19096;BME280;9680;52.520;13.332;2022-10-30T09:59:02;101507.31;;;19.17;66.30
19096;BME280;9680;52.520;13.332;2022-10-30T10:04:34;101526.03;;;19.28;65.52
19096;BME280;9680;52.520;13.332;2022-10-30T10:07:35;101523.75;;;19.37;65.47
19096;BME280;9680;52.520;13.332;2022-10-30T10:10:46;101523.34;;;19.43;65.01
19096;BME280;9680;52.520;13.332;2022-10-30T10:16:10;101525.22;;;19.55;64.15
19096;BME280;9680;52.520;13.332;2022-10-30T10:18:56;101507.25;;;19.60;63.56
19096;BME280;9680;52.520;13.332;2022-10-30T10:21:27;101512.06;;;19.68;62.92
19096;BME280;9680;52.520;13.332;2022-10-30T10:23:54;101512.50;;;19.75;63.10
19096;BME280;9680;52.520;13.332;2022-10-30T10:39:58;101518.41;;;19.93;62.92
19096;BME280;9680;52.520;13.332;2022-10-30T10:42:47;101517.19;;;19.99;62.76
19096;BME280;9680;52.520;13.332;2022-10-30T10:48:19;101503.66;;;20.03;62.23
19096;BME280;9680;52.520;13.332;2022-10-30T10:51:32;101507.69;;;20.09;62.35
19096;BME280;9680;52.520;13.332;2022-10-30T10:56:13;101501.34;;;20.12;60.17
19096;BME280;9680;52.520;13.332;2022-10-30T10:59:00;101503.34;;;20.21;60.37
19096;BME280;9680;52.520;13.332;2022-10-30T11:02:36;101496.81;;;20.27;60.38
19096;BME280;9680;52.520;13.332;2022-10-30T11:04:45;101493.66;;;20.34;60.35
19096;BME280;9680;52.520;13.332;2022-10-30T11:07:24;101498.75;;;20.37;60.71
19096;BME280;9680;52.520;13.332;2022-10-30T11:09:54;101488.91;;;20.40;60.12
19096;BME280;9680;52.520;13.332;2022-10-30T11:12:25;101485.19;;;20.42;59.39
19096;BME280;9680;52.520;13.332;2022-10-30T11:14:51;101484.97;;;20.45;58.99
19096;BME280;9680;52.520;13.332;2022-10-30T11:17:24;101473.88;;;20.53;59.21
19096;BME280;9680;52.520;13.332;2022-10-30T11:19:57;101484.91;;;20.60;59.46
19096;BME280;9680;52.520;13.332;2022-10-30T11:22:34;101484.06;;;20.59;58.97
19096;BME280;9680;52.520;13.332;2022-10-30T11:25:22;101478.75;;;20.59;58.93
19096;BME280;9680;52.520;13.332;2022-10-30T11:27:55;101480.16;;;20.65;59.45
19096;BME280;9680;52.520;13.332;2022-10-30T11:30:24;101480.88;;;20.67;59.13
19096;BME280;9680;52.520;13.332;2022-10-30T11:32:50;101484.38;;;20.67;58.89
19096;BME280;9680;52.520;13.332;2022-10-30T11:35:18;101488.63;;;20.70;58.87
19096;BME280;9680;52.520;13.332;2022-10-30T11:37:46;101489.44;;;20.71;58.62
19096;BME280;9680;52.520;13.332;2022-10-30T11:42:42;101485.09;;;20.70;58.25
19096;BME280;9680;52.520;13.332;2022-10-30T11:45:31;101487.53;;;20.73;58.49
19096;BME280;9680;52.520;13.332;2022-10-30T11:47:58;101486.50;;;20.75;58.53
19096;BME280;9680;52.520;13.332;2022-10-30T11:50:27;101491.66;;;20.77;58.25
19096;BME280;9680;52.520;13.332;2022-10-30T11:53:10;101491.59;;;20.78;58.16
19096;BME280;9680;52.520;13.332;2022-10-30T11:58:03;101481.41;;;20.85;57.40
19096;BME280;9680;52.520;13.332;2022-10-30T12:00:31;101483.88;;;20.88;57.73
19096;BME280;9680;52.520;13.332;2022-10-30T12:02:59;101479.31;;;20.90;57.63
19096;BME280;9680;52.520;13.332;2022-10-30T12:05:29;101482.78;;;20.91;57.31
19096;BME280;9680;52.520;13.332;2022-10-30T12:08:16;101481.97;;;20.90;57.58
19096;BME280;9680;52.520;13.332;2022-10-30T12:11:14;101471.03;;;20.95;57.68
19096;BME280;9680;52.520;13.332;2022-10-30T12:13:39;101477.72;;;21.01;57.69
19096;BME280;9680;52.520;13.332;2022-10-30T12:16:17;101473.38;;;21.00;57.79
19096;BME280;9680;52.520;13.332;2022-10-30T12:19:00;101477.81;;;20.99;58.25
19096;BME280;9680;52.520;13.332;2022-10-30T12:21:31;101487.44;;;21.00;57.92
19096;BME280;9680;52.520;13.332;2022-10-30T12:24:01;101484.78;;;21.00;57.71
19096;BME280;9680;52.520;13.332;2022-10-30T12:26:32;101489.13;;;21.01;56.53
19096;BME280;9680;52.520;13.332;2022-10-30T12:29:00;101499.28;;;21.07;56.56
19096;BME280;9680;52.520;13.332;2022-10-30T12:31:45;101487.66;;;21.10;56.57
19096;BME280;9680;52.520;13.332;2022-10-30T12:34:23;101483.19;;;21.10;56.61
19096;BME280;9680;52.520;13.332;2022-10-30T12:37:07;101483.91;;;21.13;56.35
19096;BME280;9680;52.520;13.332;2022-10-30T12:42:19;101474.91;;;21.15;56.24
19096;BME280;9680;52.520;13.332;2022-10-30T12:44:54;101476.63;;;21.16;56.50
19096;BME280;9680;52.520;13.332;2022-10-30T12:47:50;101483.09;;;21.12;56.81
19096;BME280;9680;52.520;13.332;2022-10-30T12:50:28;101472.50;;;21.12;57.06
19096;BME280;9680;52.520;13.332;2022-10-30T12:53:31;101477.06;;;21.10;57.28
19096;BME280;9680;52.520;13.332;2022-10-30T12:56:01;101473.88;;;21.05;57.29
19096;BME280;9680;52.520;13.332;2022-10-30T12:58:42;101476.84;;;21.00;56.80
19096;BME280;9680;52.520;13.332;2022-10-30T13:01:21;101475.38;;;20.96;56.92
19096;BME280;9680;52.520;13.332;2022-10-30T13:04:08;101474.63;;;20.94;57.09
19096;BME280;9680;52.520;13.332;2022-10-30T13:06:44;101472.84;;;20.94;57.07
19096;BME280;9680;52.520;13.332;2022-10-30T13:09:18;101468.38;;;20.95;56.97
19096;BME280;9680;52.520;13.332;2022-10-30T13:14:39;101476.53;;;20.92;57.43
19096;BME280;9680;52.520;13.332;2022-10-30T13:17:12;101467.88;;;20.90;57.48
19096;BME280;9680;52.520;13.332;2022-10-30T13:19:44;101470.63;;;20.88;57.46
19096;BME280;9680;52.520;13.332;2022-10-30T13:22:23;101464.91;;;20.94;57.09
19096;BME280;9680;52.520;13.332;2022-10-30T13:25:00;101463.28;;;21.05;57.04
19096;BME280;9680;52.520;13.332;2022-10-30T13:27:37;101458.81;;;21.05;56.85
19096;BME280;9680;52.520;13.332;2022-10-30T13:30:21;101461.16;;;21.10;56.75
19096;BME280;9680;52.520;13.332;2022-10-30T13:35:47;101463.28;;;21.05;57.06
19096;BME280;9680;52.520;13.332;2022-10-30T13:46:20;101463.28;;;21.05;57.53
19096;BME280;9680;52.520;13.332;2022-10-30T13:49:19;101460.88;;;21.02;57.38
19096;BME280;9680;52.520;13.332;2022-10-30T13:55:23;101462.19;;;21.58;56.23
19096;BME280;9680;52.520;13.332;2022-10-30T14:02:55;101456.56;;;21.49;56.21
19096;BME280;9680;52.520;13.332;2022-10-30T14:05:42;101463.44;;;21.28;56.72
19096;BME280;9680;52.520;13.332;2022-10-30T14:10:57;101466.16;;;21.02;57.39
19096;BME280;9680;52.520;13.332;2022-10-30T14:13:24;101471.69;;;20.99;57.52
19096;BME280;9680;52.520;13.332;2022-10-30T14:16:01;101471.03;;;20.95;57.91
19096;BME280;9680;52.520;13.332;2022-10-30T14:24:12;101478.25;;;20.67;58.47
19096;BME280;9680;52.520;13.332;2022-10-30T14:26:45;101477.72;;;20.62;58.78
19096;BME280;9680;52.520;13.332;2022-10-30T14:37:17;101476.09;;;20.33;59.56
19096;BME280;9680;52.520;13.332;2022-10-30T14:43:05;101475.44;;;20.17;60.18
19096;BME280;9680;52.520;13.332;2022-10-30T14:45:52;101478.69;;;20.07;60.20
19096;BME280;9680;52.520;13.332;2022-10-30T14:48:29;101474.75;;;20.00;60.85
19096;BME280;9680;52.520;13.332;2022-10-30T14:51:21;101484.81;;;19.95;60.91
19096;BME280;9680;52.520;13.332;2022-10-30T14:54:04;101482.53;;;19.89;61.11
19096;BME280;9680;52.520;13.332;2022-10-30T14:56:44;101488.84;;;19.86;61.36